sensor_id;sensor_type;location;lat;lon;timestamp;P1;durP1;ratioP1;P2;durP2;ratioP2
2966;SDS011;1493;51.496;7.210;2022-10-23T00:00:16;4.47;;;2.20;;
2966;SDS011;1493;51.496;7.210;2022-10-23T00:02:43;3.80;;;2.20;;
2966;SDS011;1493;51.496;7.210;2022-10-23T00:05:10;6.90;;;2.37;;
2966;SDS011;1493;51.496;7.210;2022-10-23T00:07:37;2.53;;;1.77;;
2966;SDS011;1493;51.496;7.210;2022-10-23T00:10:04;4.23;;;2.43;;
2966;SDS011;1493;51.496;7.210;2022-10-23T00:12:31;3.33;;;1.83;;
2966;SDS011;1493;51.496;7.210;2022-10-23T00:14:59;3.63;;;2.00;;
2966;SDS011;1493;51.496;7.210;2022-10-23T00:17:26;4.73;;;2.03;;
2966;SDS011;1493;51.496;7.210;2022-10-23T00:19:56;2.77;;;1.97;;
2966;SDS011;1493;51.496;7.210;2022-10-23T00:22:23;5.40;;;2.13;;
2966;SDS011;1493;51.496;7.210;2022-10-23T00:24:50;2.80;;;1.70;;
2966;SDS011;1493;51.496;7.210;2022-10-23T00:27:17;3.70;;;2.30;;
2966;SDS011;1493;51.496;7.210;2022-10-23T00:29:44;3.40;;;2.10;;
2966;SDS011;1493;51.496;7.210;2022-10-23T00:32:12;4.33;;;2.00;;
2966;SDS011;1493;51.496;7.210;2022-10-23T00:34:39;3.27;;;2.23;;
2966;SDS011;1493;51.496;7.210;2022-10-23T00:37:06;2.77;;;2.07;;
2966;SDS011;1493;51.496;7.210;2022-10-23T00:39:33;6.87;;;2.67;;
2966;SDS011;1493;51.496;7.210;2022-10-23T00:41:59;2.70;;;2.20;;
2966;SDS011;1493;51.496;7.210;2022-10-23T00:47:32;3.13;;;2.00;;
2966;SDS011;1493;51.496;7.210;2022-10-23T00:49:59;7.77;;;2.20;;
2966;SDS011;1493;51.496;7.210;2022-10-23T00:52:26;6.10;;;2.03;;
2966;SDS011;1493;51.496;7.210;2022-10-23T00:54:53;4.50;;;1.80;;
2966;SDS011;1493;51.496;7.210;2022-10-23T00:57:21;7.13;;;2.90;;
2966;SDS011;1493;51.496;7.210;2022-10-23T00:59:48;4.40;;;2.07;;
2966;SDS011;1493;51.496;7.210;2022-10-23T01:02:15;3.80;;;2.00;;
2966;SDS011;1493;51.496;7.210;2022-10-23T01:04:43;2.90;;;2.10;;
2966;SDS011;1493;51.496;7.210;2022-10-23T01:07:11;4.50;;;2.10;;
2966;SDS011;1493;51.496;7.210;2022-10-23T01:09:44;4.97;;;2.03;;
2966;SDS011;1493;51.496;7.210;2022-10-23T01:12:18;4.33;;;2.40;;
2966;SDS011;1493;51.496;7.210;2022-10-23T01:14:54;4.23;;;2.33;;
2966;SDS011;1493;51.496;7.210;2022-10-23T01:17:30;16.93;;;2.47;;
2966;SDS011;1493;51.496;7.210;2022-10-23T01:20:09;5.00;;;2.20;;
2966;SDS011;1493;51.496;7.210;2022-10-23T01:23:00;3.60;;;2.10;;
2966;SDS011;1493;51.496;7.210;2022-10-23T01:25:45;4.70;;;1.87;;
2966;SDS011;1493;51.496;7.210;2022-10-23T01:28:25;4.60;;;2.03;;
2966;SDS011;1493;51.496;7.210;2022-10-23T01:30:58;4.27;;;2.10;;
2966;SDS011;1493;51.496;7.210;2022-10-23T01:33:26;5.60;;;2.23;;
2966;SDS011;1493;51.496;7.210;2022-10-23T01:35:59;4.17;;;2.40;;
2966;SDS011;1493;51.496;7.210;2022-10-23T01:38:30;3.57;;;2.00;;
2966;SDS011;1493;51.496;7.210;2022-10-23T01:41:04;7.60;;;2.70;;
2966;SDS011;1493;51.496;7.210;2022-10-23T01:43:39;2.03;;;1.77;;
2966;SDS011;1493;51.496;7.210;2022-10-23T01:46:11;7.90;;;2.40;;
2966;SDS011;1493;51.496;7.210;2022-10-23T01:48:42;3.10;;;1.80;;
2966;SDS011;1493;51.496;7.210;2022-10-23T01:51:12;5.27;;;2.20;;
2966;SDS011;1493;51.496;7.210;2022-10-23T01:53:42;3.37;;;2.00;;
2966;SDS011;1493;51.496;7.210;2022-10-23T01:56:12;5.17;;;2.50;;
2966;SDS011;1493;51.496;7.210;2022-10-23T01:58:44;3.77;;;1.93;;
2966;SDS011;1493;51.496;7.210;2022-10-23T02:01:13;3.13;;;1.73;;
2966;SDS011;1493;51.496;7.210;2022-10-23T02:03:41;5.57;;;1.77;;
2966;SDS011;1493;51.496;7.210;2022-10-23T02:06:09;7.57;;;2.20;;
2966;SDS011;1493;51.496;7.210;2022-10-23T02:08:36;5.70;;;1.83;;
2966;SDS011;1493;51.496;7.210;2022-10-23T02:11:05;3.57;;;2.13;;
2966;SDS011;1493;51.496;7.210;2022-10-23T02:13:35;6.53;;;2.30;;
2966;SDS011;1493;51.496;7.210;2022-10-23T02:16:10;6.23;;;1.97;;
2966;SDS011;1493;51.496;7.210;2022-10-23T02:18:49;3.90;;;2.00;;
2966;SDS011;1493;51.496;7.210;2022-10-23T02:21:22;5.40;;;2.23;;
2966;SDS011;1493;51.496;7.210;2022-10-23T02:23:58;4.40;;;1.87;;
2966;SDS011;1493;51.496;7.210;2022-10-23T02:26:29;2.87;;;1.93;;
2966;SDS011;1493;51.496;7.210;2022-10-23T02:29:02;4.03;;;2.30;;
2966;SDS011;1493;51.496;7.210;2022-10-23T02:31:35;6.40;;;3.20;;
2966;SDS011;1493;51.496;7.210;2022-10-23T02:34:02;6.70;;;1.80;;
2966;SDS011;1493;51.496;7.210;2022-10-23T02:36:29;4.07;;;2.10;;
2966;SDS011;1493;51.496;7.210;2022-10-23T02:38:56;2.67;;;1.60;;
2966;SDS011;1493;51.496;7.210;2022-10-23T02:41:25;8.60;;;2.80;;
2966;SDS011;1493;51.496;7.210;2022-10-23T02:44:01;4.73;;;1.83;;
2966;SDS011;1493;51.496;7.210;2022-10-23T02:46:37;2.83;;;1.60;;
2966;SDS011;1493;51.496;7.210;2022-10-23T02:49:11;3.40;;;2.10;;
2966;SDS011;1493;51.496;7.210;2022-10-23T02:51:44;4.60;;;2.17;;
2966;SDS011;1493;51.496;7.210;2022-10-23T02:54:20;3.50;;;1.60;;
2966;SDS011;1493;51.496;7.210;2022-10-23T02:56:57;6.80;;;1.77;;
2966;SDS011;1493;51.496;7.210;2022-10-23T02:59:30;4.20;;;2.50;;
2966;SDS011;1493;51.496;7.210;2022-10-23T03:02:05;3.10;;;1.97;;
2966;SDS011;1493;51.496;7.210;2022-10-23T03:04:39;3.70;;;1.90;;
2966;SDS011;1493;51.496;7.210;2022-10-23T03:07:09;5.67;;;2.20;;
2966;SDS011;1493;51.496;7.210;2022-10-23T03:09:37;4.23;;;1.80;;
2966;SDS011;1493;51.496;7.210;2022-10-23T03:12:04;3.10;;;1.63;;
2966;SDS011;1493;51.496;7.210;2022-10-23T03:14:31;4.13;;;1.97;;
2966;SDS011;1493;51.496;7.210;2022-10-23T03:16:58;5.10;;;3.20;;
2966;SDS011;1493;51.496;7.210;2022-10-23T03:19:26;3.10;;;1.90;;
2966;SDS011;1493;51.496;7.210;2022-10-23T03:21:53;3.67;;;2.10;;
2966;SDS011;1493;51.496;7.210;2022-10-23T03:24:20;3.00;;;1.83;;
2966;SDS011;1493;51.496;7.210;2022-10-23T03:26:46;3.67;;;1.83;;
2966;SDS011;1493;51.496;7.210;2022-10-23T03:29:13;2.83;;;1.90;;
2966;SDS011;1493;51.496;7.210;2022-10-23T03:31:40;4.07;;;1.57;;
2966;SDS011;1493;51.496;7.210;2022-10-23T03:34:08;6.53;;;2.00;;
2966;SDS011;1493;51.496;7.210;2022-10-23T03:36:37;3.70;;;2.57;;
2966;SDS011;1493;51.496;7.210;2022-10-23T03:39:03;2.80;;;1.90;;
2966;SDS011;1493;51.496;7.210;2022-10-23T03:41:30;4.50;;;1.70;;
2966;SDS011;1493;51.496;7.210;2022-10-23T03:43:57;4.20;;;2.33;;
2966;SDS011;1493;51.496;7.210;2022-10-23T03:46:24;4.47;;;2.33;;
2966;SDS011;1493;51.496;7.210;2022-10-23T03:48:51;5.07;;;2.10;;
2966;SDS011;1493;51.496;7.210;2022-10-23T03:51:18;2.17;;;1.63;;
2966;SDS011;1493;51.496;7.210;2022-10-23T03:53:46;3.20;;;1.90;;
2966;SDS011;1493;51.496;7.210;2022-10-23T03:56:13;5.70;;;2.20;;
2966;SDS011;1493;51.496;7.210;2022-10-23T03:58:40;5.57;;;1.97;;
2966;SDS011;1493;51.496;7.210;2022-10-23T04:01:07;2.50;;;1.80;;
2966;SDS011;1493;51.496;7.210;2022-10-23T04:03:34;2.47;;;1.60;;
2966;SDS011;1493;51.496;7.210;2022-10-23T04:06:01;5.80;;;2.27;;
2966;SDS011;1493;51.496;7.210;2022-10-23T04:08:28;6.47;;;2.43;;
2966;SDS011;1493;51.496;7.210;2022-10-23T04:10:56;6.63;;;2.40;;
2966;SDS011;1493;51.496;7.210;2022-10-23T04:13:22;2.37;;;1.77;;
2966;SDS011;1493;51.496;7.210;2022-10-23T04:15:50;3.50;;;1.93;;
2966;SDS011;1493;51.496;7.210;2022-10-23T04:18:18;6.43;;;2.70;;
2966;SDS011;1493;51.496;7.210;2022-10-23T04:20:45;3.70;;;2.23;;
2966;SDS011;1493;51.496;7.210;2022-10-23T04:23:13;6.27;;;2.90;;
2966;SDS011;1493;51.496;7.210;2022-10-23T04:25:40;6.80;;;2.00;;
2966;SDS011;1493;51.496;7.210;2022-10-23T04:28:08;4.83;;;2.30;;
2966;SDS011;1493;51.496;7.210;2022-10-23T04:30:35;3.93;;;2.40;;
2966;SDS011;1493;51.496;7.210;2022-10-23T04:33:02;4.63;;;2.90;;
2966;SDS011;1493;51.496;7.210;2022-10-23T04:35:28;9.27;;;4.30;;
2966;SDS011;1493;51.496;7.210;2022-10-23T04:37:55;10.50;;;4.03;;
2966;SDS011;1493;51.496;7.210;2022-10-23T04:40:22;7.90;;;3.53;;
2966;SDS011;1493;51.496;7.210;2022-10-23T04:42:49;6.90;;;4.17;;
2966;SDS011;1493;51.496;7.210;2022-10-23T04:45:17;5.10;;;3.97;;
2966;SDS011;1493;51.496;7.210;2022-10-23T04:47:44;9.20;;;3.50;;
2966;SDS011;1493;51.496;7.210;2022-10-23T04:50:10;8.03;;;3.83;;
2966;SDS011;1493;51.496;7.210;2022-10-23T04:52:38;7.03;;;3.57;;
2966;SDS011;1493;51.496;7.210;2022-10-23T04:55:05;6.80;;;3.30;;
2966;SDS011;1493;51.496;7.210;2022-10-23T04:57:33;9.03;;;4.13;;
2966;SDS011;1493;51.496;7.210;2022-10-23T05:00:00;8.83;;;4.10;;
2966;SDS011;1493;51.496;7.210;2022-10-23T05:02:28;3.30;;;3.00;;
2966;SDS011;1493;51.496;7.210;2022-10-23T05:04:55;5.50;;;2.97;;
2966;SDS011;1493;51.496;7.210;2022-10-23T05:07:21;4.17;;;2.80;;
2966;SDS011;1493;51.496;7.210;2022-10-23T05:09:48;5.53;;;3.20;;
2966;SDS011;1493;51.496;7.210;2022-10-23T05:12:15;8.13;;;3.17;;
2966;SDS011;1493;51.496;7.210;2022-10-23T05:14:42;5.03;;;2.63;;
2966;SDS011;1493;51.496;7.210;2022-10-23T05:17:10;3.07;;;2.20;;
2966;SDS011;1493;51.496;7.210;2022-10-23T05:19:42;5.20;;;2.50;;
2966;SDS011;1493;51.496;7.210;2022-10-23T05:22:14;4.70;;;2.50;;
2966;SDS011;1493;51.496;7.210;2022-10-23T05:24:43;3.70;;;2.47;;
2966;SDS011;1493;51.496;7.210;2022-10-23T05:27:10;4.77;;;2.37;;
2966;SDS011;1493;51.496;7.210;2022-10-23T05:29:36;5.60;;;2.33;;
2966;SDS011;1493;51.496;7.210;2022-10-23T05:32:04;3.10;;;1.80;;
2966;SDS011;1493;51.496;7.210;2022-10-23T05:34:32;4.53;;;1.87;;
2966;SDS011;1493;51.496;7.210;2022-10-23T05:37:03;6.03;;;1.97;;
2966;SDS011;1493;51.496;7.210;2022-10-23T05:39:33;3.83;;;2.00;;
2966;SDS011;1493;51.496;7.210;2022-10-23T05:42:01;4.27;;;2.30;;
2966;SDS011;1493;51.496;7.210;2022-10-23T05:44:27;3.20;;;2.13;;
2966;SDS011;1493;51.496;7.210;2022-10-23T05:46:54;5.70;;;2.37;;
2966;SDS011;1493;51.496;7.210;2022-10-23T05:49:22;3.80;;;2.17;;
2966;SDS011;1493;51.496;7.210;2022-10-23T05:51:50;6.03;;;1.83;;
2966;SDS011;1493;51.496;7.210;2022-10-23T05:54:18;4.00;;;1.90;;
2966;SDS011;1493;51.496;7.210;2022-10-23T05:56:45;2.57;;;1.97;;
2966;SDS011;1493;51.496;7.210;2022-10-23T05:59:12;3.73;;;1.97;;
2966;SDS011;1493;51.496;7.210;2022-10-23T06:01:39;4.47;;;2.27;;
2966;SDS011;1493;51.496;7.210;2022-10-23T06:04:05;3.50;;;1.93;;
2966;SDS011;1493;51.496;7.210;2022-10-23T06:06:32;3.10;;;1.70;;
2966;SDS011;1493;51.496;7.210;2022-10-23T06:09:00;2.43;;;1.73;;
2966;SDS011;1493;51.496;7.210;2022-10-23T06:11:29;2.50;;;1.70;;
2966;SDS011;1493;51.496;7.210;2022-10-23T06:13:55;2.83;;;1.90;;
2966;SDS011;1493;51.496;7.210;2022-10-23T06:16:24;3.20;;;1.63;;
2966;SDS011;1493;51.496;7.210;2022-10-23T06:18:51;4.70;;;2.20;;
2966;SDS011;1493;51.496;7.210;2022-10-23T06:21:18;3.80;;;1.97;;
2966;SDS011;1493;51.496;7.210;2022-10-23T06:23:45;5.70;;;2.00;;
2966;SDS011;1493;51.496;7.210;2022-10-23T06:26:14;4.17;;;1.97;;
2966;SDS011;1493;51.496;7.210;2022-10-23T06:28:43;3.63;;;1.83;;
2966;SDS011;1493;51.496;7.210;2022-10-23T06:31:11;5.67;;;2.20;;
2966;SDS011;1493;51.496;7.210;2022-10-23T06:33:39;4.13;;;2.20;;
2966;SDS011;1493;51.496;7.210;2022-10-23T06:36:07;2.97;;;1.80;;
2966;SDS011;1493;51.496;7.210;2022-10-23T06:38:35;3.67;;;2.30;;
2966;SDS011;1493;51.496;7.210;2022-10-23T06:41:04;3.67;;;1.80;;
2966;SDS011;1493;51.496;7.210;2022-10-23T06:43:33;6.10;;;2.40;;
2966;SDS011;1493;51.496;7.210;2022-10-23T06:46:02;3.97;;;1.97;;
2966;SDS011;1493;51.496;7.210;2022-10-23T06:48:29;3.00;;;1.77;;
2966;SDS011;1493;51.496;7.210;2022-10-23T06:50:56;4.60;;;2.23;;
2966;SDS011;1493;51.496;7.210;2022-10-23T06:53:23;3.47;;;2.30;;
2966;SDS011;1493;51.496;7.210;2022-10-23T06:55:50;3.93;;;2.10;;
2966;SDS011;1493;51.496;7.210;2022-10-23T06:58:17;3.60;;;2.10;;
2966;SDS011;1493;51.496;7.210;2022-10-23T07:00:44;3.40;;;1.90;;
2966;SDS011;1493;51.496;7.210;2022-10-23T07:03:12;3.13;;;1.97;;
2966;SDS011;1493;51.496;7.210;2022-10-23T07:05:39;3.40;;;2.00;;
2966;SDS011;1493;51.496;7.210;2022-10-23T07:08:08;5.10;;;2.13;;
2966;SDS011;1493;51.496;7.210;2022-10-23T07:10:35;4.40;;;2.00;;
2966;SDS011;1493;51.496;7.210;2022-10-23T07:13:02;5.50;;;1.90;;
2966;SDS011;1493;51.496;7.210;2022-10-23T07:15:29;2.80;;;2.17;;
2966;SDS011;1493;51.496;7.210;2022-10-23T07:17:58;5.50;;;1.90;;
2966;SDS011;1493;51.496;7.210;2022-10-23T07:20:27;4.90;;;2.03;;
2966;SDS011;1493;51.496;7.210;2022-10-23T07:22:54;5.50;;;1.80;;
2966;SDS011;1493;51.496;7.210;2022-10-23T07:25:21;3.47;;;2.03;;
2966;SDS011;1493;51.496;7.210;2022-10-23T07:27:49;8.60;;;2.00;;
2966;SDS011;1493;51.496;7.210;2022-10-23T07:30:16;4.10;;;2.07;;
2966;SDS011;1493;51.496;7.210;2022-10-23T07:32:43;3.90;;;2.50;;
2966;SDS011;1493;51.496;7.210;2022-10-23T07:35:11;5.37;;;2.40;;
2966;SDS011;1493;51.496;7.210;2022-10-23T07:37:39;2.93;;;1.93;;
2966;SDS011;1493;51.496;7.210;2022-10-23T07:40:06;4.40;;;2.03;;
2966;SDS011;1493;51.496;7.210;2022-10-23T07:42:34;3.23;;;2.00;;
2966;SDS011;1493;51.496;7.210;2022-10-23T07:45:01;3.57;;;1.97;;
2966;SDS011;1493;51.496;7.210;2022-10-23T07:47:28;3.20;;;2.20;;
2966;SDS011;1493;51.496;7.210;2022-10-23T07:49:56;4.07;;;2.00;;
2966;SDS011;1493;51.496;7.210;2022-10-23T07:52:23;4.33;;;2.57;;
2966;SDS011;1493;51.496;7.210;2022-10-23T07:54:51;3.40;;;2.10;;
2966;SDS011;1493;51.496;7.210;2022-10-23T07:57:18;3.50;;;2.10;;
2966;SDS011;1493;51.496;7.210;2022-10-23T07:59:45;3.20;;;2.07;;
2966;SDS011;1493;51.496;7.210;2022-10-23T08:02:12;3.33;;;1.97;;
2966;SDS011;1493;51.496;7.210;2022-10-23T08:04:40;4.60;;;2.13;;
2966;SDS011;1493;51.496;7.210;2022-10-23T08:07:07;3.47;;;1.57;;
2966;SDS011;1493;51.496;7.210;2022-10-23T08:09:34;3.40;;;1.73;;
2966;SDS011;1493;51.496;7.210;2022-10-23T08:12:03;4.47;;;2.03;;
2966;SDS011;1493;51.496;7.210;2022-10-23T08:14:30;2.73;;;2.13;;
2966;SDS011;1493;51.496;7.210;2022-10-23T08:16:57;4.17;;;1.83;;
2966;SDS011;1493;51.496;7.210;2022-10-23T08:19:24;6.03;;;2.10;;
2966;SDS011;1493;51.496;7.210;2022-10-23T08:21:51;3.50;;;1.97;;
2966;SDS011;1493;51.496;7.210;2022-10-23T08:24:19;2.63;;;1.67;;
2966;SDS011;1493;51.496;7.210;2022-10-23T08:26:47;3.37;;;1.90;;
2966;SDS011;1493;51.496;7.210;2022-10-23T08:29:16;3.83;;;1.63;;
2966;SDS011;1493;51.496;7.210;2022-10-23T08:31:43;6.93;;;1.57;;
2966;SDS011;1493;51.496;7.210;2022-10-23T08:34:10;5.63;;;1.70;;
2966;SDS011;1493;51.496;7.210;2022-10-23T08:36:37;2.20;;;1.50;;
2966;SDS011;1493;51.496;7.210;2022-10-23T08:39:04;9.03;;;2.30;;
2966;SDS011;1493;51.496;7.210;2022-10-23T08:41:32;4.57;;;1.90;;
2966;SDS011;1493;51.496;7.210;2022-10-23T08:44:02;5.90;;;2.57;;
2966;SDS011;1493;51.496;7.210;2022-10-23T08:46:36;6.70;;;1.40;;
2966;SDS011;1493;51.496;7.210;2022-10-23T08:49:12;4.20;;;2.20;;
2966;SDS011;1493;51.496;7.210;2022-10-23T08:51:46;3.30;;;1.93;;
2966;SDS011;1493;51.496;7.210;2022-10-23T08:54:15;2.90;;;1.93;;
2966;SDS011;1493;51.496;7.210;2022-10-23T08:56:47;4.50;;;2.87;;
2966;SDS011;1493;51.496;7.210;2022-10-23T08:59:21;5.80;;;2.00;;
2966;SDS011;1493;51.496;7.210;2022-10-23T09:01:54;4.97;;;2.30;;
2966;SDS011;1493;51.496;7.210;2022-10-23T09:04:26;5.53;;;2.93;;
2966;SDS011;1493;51.496;7.210;2022-10-23T09:06:55;6.30;;;2.93;;
2966;SDS011;1493;51.496;7.210;2022-10-23T09:09:39;3.67;;;2.30;;
2966;SDS011;1493;51.496;7.210;2022-10-23T09:12:22;3.90;;;2.50;;
2966;SDS011;1493;51.496;7.210;2022-10-23T09:17:51;6.23;;;2.23;;
2966;SDS011;1493;51.496;7.210;2022-10-23T09:20:21;5.10;;;2.33;;
2966;SDS011;1493;51.496;7.210;2022-10-23T09:22:52;5.63;;;2.17;;
2966;SDS011;1493;51.496;7.210;2022-10-23T09:25:21;3.10;;;1.90;;
2966;SDS011;1493;51.496;7.210;2022-10-23T09:27:50;4.17;;;2.57;;
2966;SDS011;1493;51.496;7.210;2022-10-23T09:30:26;4.67;;;2.27;;
2966;SDS011;1493;51.496;7.210;2022-10-23T09:32:57;4.50;;;1.90;;
2966;SDS011;1493;51.496;7.210;2022-10-23T09:35:25;5.60;;;2.40;;
2966;SDS011;1493;51.496;7.210;2022-10-23T09:37:54;3.70;;;1.97;;
2966;SDS011;1493;51.496;7.210;2022-10-23T09:40:24;3.27;;;2.47;;
2966;SDS011;1493;51.496;7.210;2022-10-23T09:42:58;6.03;;;2.53;;
2966;SDS011;1493;51.496;7.210;2022-10-23T09:45:38;3.30;;;2.50;;
2966;SDS011;1493;51.496;7.210;2022-10-23T09:48:11;5.33;;;3.60;;
2966;SDS011;1493;51.496;7.210;2022-10-23T09:50:49;7.90;;;5.83;;
2966;SDS011;1493;51.496;7.210;2022-10-23T09:53:20;5.00;;;3.73;;
2966;SDS011;1493;51.496;7.210;2022-10-23T09:55:52;4.90;;;3.10;;
2966;SDS011;1493;51.496;7.210;2022-10-23T09:58:23;2.20;;;1.87;;
2966;SDS011;1493;51.496;7.210;2022-10-23T10:00:55;5.77;;;2.77;;
2966;SDS011;1493;51.496;7.210;2022-10-23T10:03:23;6.23;;;1.50;;
2966;SDS011;1493;51.496;7.210;2022-10-23T10:05:54;3.80;;;1.53;;
2966;SDS011;1493;51.496;7.210;2022-10-23T10:08:24;2.77;;;1.23;;
2966;SDS011;1493;51.496;7.210;2022-10-23T10:10:59;3.20;;;1.40;;
2966;SDS011;1493;51.496;7.210;2022-10-23T10:16:23;3.87;;;1.37;;
2966;SDS011;1493;51.496;7.210;2022-10-23T10:19:02;4.70;;;2.40;;
2966;SDS011;1493;51.496;7.210;2022-10-23T10:21:37;4.60;;;1.40;;
2966;SDS011;1493;51.496;7.210;2022-10-23T10:24:11;3.60;;;1.67;;
2966;SDS011;1493;51.496;7.210;2022-10-23T10:26:47;5.13;;;1.90;;
2966;SDS011;1493;51.496;7.210;2022-10-23T10:29:24;3.60;;;2.10;;
2966;SDS011;1493;51.496;7.210;2022-10-23T10:32:03;3.70;;;1.10;;
2966;SDS011;1493;51.496;7.210;2022-10-23T10:34:42;2.97;;;1.43;;
2966;SDS011;1493;51.496;7.210;2022-10-23T10:37:18;4.50;;;1.73;;
2966;SDS011;1493;51.496;7.210;2022-10-23T10:39:53;2.57;;;1.40;;
2966;SDS011;1493;51.496;7.210;2022-10-23T10:42:35;2.00;;;1.10;;
2966;SDS011;1493;51.496;7.210;2022-10-23T10:45:26;2.70;;;1.43;;
2966;SDS011;1493;51.496;7.210;2022-10-23T10:50:58;2.30;;;1.10;;
2966;SDS011;1493;51.496;7.210;2022-10-23T10:53:30;5.50;;;1.40;;
2966;SDS011;1493;51.496;7.210;2022-10-23T10:56:09;2.17;;;1.40;;
2966;SDS011;1493;51.496;7.210;2022-10-23T10:58:41;3.90;;;1.20;;
2966;SDS011;1493;51.496;7.210;2022-10-23T11:01:13;3.87;;;1.40;;
2966;SDS011;1493;51.496;7.210;2022-10-23T11:03:51;3.30;;;1.30;;
2966;SDS011;1493;51.496;7.210;2022-10-23T11:06:22;3.77;;;1.60;;
2966;SDS011;1493;51.496;7.210;2022-10-23T11:08:51;3.60;;;1.30;;
2966;SDS011;1493;51.496;7.210;2022-10-23T11:11:20;5.07;;;1.43;;
2966;SDS011;1493;51.496;7.210;2022-10-23T11:13:52;4.13;;;1.20;;
2966;SDS011;1493;51.496;7.210;2022-10-23T11:16:19;3.70;;;1.17;;
2966;SDS011;1493;51.496;7.210;2022-10-23T11:18:51;2.10;;;1.20;;
2966;SDS011;1493;51.496;7.210;2022-10-23T11:21:31;5.30;;;1.77;;
2966;SDS011;1493;51.496;7.210;2022-10-23T11:24:27;6.00;;;1.30;;
2966;SDS011;1493;51.496;7.210;2022-10-23T11:27:18;3.93;;;1.27;;
2966;SDS011;1493;51.496;7.210;2022-10-23T11:30:03;3.23;;;1.40;;
2966;SDS011;1493;51.496;7.210;2022-10-23T11:32:59;2.97;;;1.33;;
2966;SDS011;1493;51.496;7.210;2022-10-23T11:35:52;1.90;;;1.10;;
2966;SDS011;1493;51.496;7.210;2022-10-23T11:38:29;3.40;;;1.33;;
2966;SDS011;1493;51.496;7.210;2022-10-23T11:40:59;3.10;;;1.50;;
2966;SDS011;1493;51.496;7.210;2022-10-23T11:43:30;3.27;;;1.27;;
2966;SDS011;1493;51.496;7.210;2022-10-23T11:45:58;5.17;;;1.83;;
2966;SDS011;1493;51.496;7.210;2022-10-23T11:48:37;3.00;;;1.33;;
2966;SDS011;1493;51.496;7.210;2022-10-23T11:51:23;3.60;;;1.80;;
2966;SDS011;1493;51.496;7.210;2022-10-23T11:54:03;2.60;;;1.50;;
2966;SDS011;1493;51.496;7.210;2022-10-23T11:56:31;6.13;;;1.73;;
2966;SDS011;1493;51.496;7.210;2022-10-23T11:58:59;3.13;;;1.20;;
2966;SDS011;1493;51.496;7.210;2022-10-23T12:01:46;9.00;;;1.30;;
2966;SDS011;1493;51.496;7.210;2022-10-23T12:04:17;2.33;;;1.30;;
2966;SDS011;1493;51.496;7.210;2022-10-23T12:06:48;1.97;;;1.23;;
2966;SDS011;1493;51.496;7.210;2022-10-23T12:09:26;3.70;;;1.10;;
2966;SDS011;1493;51.496;7.210;2022-10-23T12:12:03;2.40;;;1.20;;
2966;SDS011;1493;51.496;7.210;2022-10-23T12:14:42;4.70;;;1.40;;
2966;SDS011;1493;51.496;7.210;2022-10-23T12:20:13;3.70;;;1.17;;
2966;SDS011;1493;51.496;7.210;2022-10-23T12:22:57;3.80;;;1.20;;
2966;SDS011;1493;51.496;7.210;2022-10-23T12:25:41;2.97;;;1.30;;
2966;SDS011;1493;51.496;7.210;2022-10-23T12:28:18;2.90;;;1.37;;
2966;SDS011;1493;51.496;7.210;2022-10-23T12:30:55;13.33;;;1.70;;
2966;SDS011;1493;51.496;7.210;2022-10-23T12:33:34;2.87;;;1.40;;
2966;SDS011;1493;51.496;7.210;2022-10-23T12:36:13;3.63;;;1.60;;
2966;SDS011;1493;51.496;7.210;2022-10-23T12:38:48;4.37;;;1.50;;
2966;SDS011;1493;51.496;7.210;2022-10-23T12:41:18;4.10;;;1.20;;
2966;SDS011;1493;51.496;7.210;2022-10-23T12:43:49;3.20;;;1.43;;
2966;SDS011;1493;51.496;7.210;2022-10-23T12:46:25;4.40;;;1.57;;
2966;SDS011;1493;51.496;7.210;2022-10-23T12:48:56;4.13;;;1.50;;
2966;SDS011;1493;51.496;7.210;2022-10-23T12:51:25;2.30;;;1.30;;
2966;SDS011;1493;51.496;7.210;2022-10-23T12:53:54;9.23;;;1.60;;
2966;SDS011;1493;51.496;7.210;2022-10-23T12:56:22;4.67;;;1.77;;
2966;SDS011;1493;51.496;7.210;2022-10-23T12:58:51;3.40;;;1.13;;
2966;SDS011;1493;51.496;7.210;2022-10-23T13:01:24;2.63;;;1.30;;
2966;SDS011;1493;51.496;7.210;2022-10-23T13:03:55;2.20;;;1.30;;
2966;SDS011;1493;51.496;7.210;2022-10-23T13:06:24;4.77;;;1.77;;
2966;SDS011;1493;51.496;7.210;2022-10-23T13:08:52;4.50;;;1.70;;
2966;SDS011;1493;51.496;7.210;2022-10-23T13:11:19;4.53;;;1.93;;
2966;SDS011;1493;51.496;7.210;2022-10-23T13:13:48;4.60;;;1.70;;
2966;SDS011;1493;51.496;7.210;2022-10-23T13:16:16;7.10;;;2.00;;
2966;SDS011;1493;51.496;7.210;2022-10-23T13:18:44;5.30;;;1.90;;
2966;SDS011;1493;51.496;7.210;2022-10-23T13:21:14;2.63;;;1.80;;
2966;SDS011;1493;51.496;7.210;2022-10-23T13:23:43;3.40;;;1.47;;
2966;SDS011;1493;51.496;7.210;2022-10-23T13:26:22;5.07;;;1.60;;
2966;SDS011;1493;51.496;7.210;2022-10-23T13:28:52;4.90;;;1.90;;
2966;SDS011;1493;51.496;7.210;2022-10-23T13:31:27;4.50;;;1.60;;
2966;SDS011;1493;51.496;7.210;2022-10-23T13:34:03;6.43;;;1.70;;
2966;SDS011;1493;51.496;7.210;2022-10-23T13:36:48;4.67;;;1.80;;
2966;SDS011;1493;51.496;7.210;2022-10-23T13:39:23;6.60;;;1.73;;
2966;SDS011;1493;51.496;7.210;2022-10-23T13:41:52;3.07;;;1.60;;
2966;SDS011;1493;51.496;7.210;2022-10-23T13:44:20;3.10;;;1.80;;
2966;SDS011;1493;51.496;7.210;2022-10-23T13:46:48;6.07;;;2.10;;
2966;SDS011;1493;51.496;7.210;2022-10-23T13:49:17;5.50;;;1.60;;
2966;SDS011;1493;51.496;7.210;2022-10-23T13:51:45;4.67;;;2.83;;
2966;SDS011;1493;51.496;7.210;2022-10-23T13:54:15;3.87;;;1.80;;
2966;SDS011;1493;51.496;7.210;2022-10-23T13:56:44;5.07;;;1.77;;
2966;SDS011;1493;51.496;7.210;2022-10-23T13:59:11;5.50;;;1.80;;
2966;SDS011;1493;51.496;7.210;2022-10-23T14:01:39;4.67;;;1.50;;
2966;SDS011;1493;51.496;7.210;2022-10-23T14:04:07;4.00;;;1.53;;
2966;SDS011;1493;51.496;7.210;2022-10-23T14:06:35;3.47;;;1.90;;
2966;SDS011;1493;51.496;7.210;2022-10-23T14:09:02;4.83;;;2.03;;
2966;SDS011;1493;51.496;7.210;2022-10-23T14:11:30;3.30;;;1.50;;
2966;SDS011;1493;51.496;7.210;2022-10-23T14:13:57;4.80;;;2.07;;
2966;SDS011;1493;51.496;7.210;2022-10-23T14:16:24;3.33;;;1.43;;
2966;SDS011;1493;51.496;7.210;2022-10-23T14:18:53;4.90;;;1.50;;
2966;SDS011;1493;51.496;7.210;2022-10-23T14:21:21;6.93;;;1.97;;
2966;SDS011;1493;51.496;7.210;2022-10-23T14:23:49;5.63;;;1.80;;
2966;SDS011;1493;51.496;7.210;2022-10-23T14:26:19;6.07;;;1.73;;
2966;SDS011;1493;51.496;7.210;2022-10-23T14:28:50;4.77;;;1.63;;
2966;SDS011;1493;51.496;7.210;2022-10-23T14:31:18;3.97;;;2.13;;
2966;SDS011;1493;51.496;7.210;2022-10-23T14:33:45;3.10;;;1.70;;
2966;SDS011;1493;51.496;7.210;2022-10-23T14:36:18;3.30;;;1.70;;
2966;SDS011;1493;51.496;7.210;2022-10-23T14:38:45;3.43;;;1.40;;
2966;SDS011;1493;51.496;7.210;2022-10-23T14:41:12;6.90;;;2.13;;
2966;SDS011;1493;51.496;7.210;2022-10-23T14:43:41;3.17;;;2.27;;
2966;SDS011;1493;51.496;7.210;2022-10-23T14:46:08;3.30;;;1.90;;
2966;SDS011;1493;51.496;7.210;2022-10-23T14:48:36;4.33;;;2.17;;
2966;SDS011;1493;51.496;7.210;2022-10-23T14:51:03;5.50;;;2.00;;
2966;SDS011;1493;51.496;7.210;2022-10-23T14:53:32;5.57;;;1.70;;
2966;SDS011;1493;51.496;7.210;2022-10-23T14:55:59;4.07;;;1.97;;
2966;SDS011;1493;51.496;7.210;2022-10-23T14:58:27;5.70;;;2.10;;
2966;SDS011;1493;51.496;7.210;2022-10-23T15:00:57;3.40;;;1.53;;
2966;SDS011;1493;51.496;7.210;2022-10-23T15:03:25;3.53;;;2.00;;
2966;SDS011;1493;51.496;7.210;2022-10-23T15:05:52;6.83;;;1.90;;
2966;SDS011;1493;51.496;7.210;2022-10-23T15:08:19;4.17;;;1.67;;
2966;SDS011;1493;51.496;7.210;2022-10-23T15:10:48;4.27;;;2.03;;
2966;SDS011;1493;51.496;7.210;2022-10-23T15:13:15;3.97;;;2.03;;
2966;SDS011;1493;51.496;7.210;2022-10-23T15:15:42;4.63;;;2.00;;
2966;SDS011;1493;51.496;7.210;2022-10-23T15:18:09;3.90;;;2.23;;
2966;SDS011;1493;51.496;7.210;2022-10-23T15:20:36;8.37;;;2.30;;
2966;SDS011;1493;51.496;7.210;2022-10-23T15:23:03;6.50;;;2.10;;
2966;SDS011;1493;51.496;7.210;2022-10-23T15:25:29;4.03;;;1.60;;
2966;SDS011;1493;51.496;7.210;2022-10-23T15:27:57;5.93;;;1.70;;
2966;SDS011;1493;51.496;7.210;2022-10-23T15:30:24;4.53;;;1.70;;
2966;SDS011;1493;51.496;7.210;2022-10-23T15:32:51;8.13;;;3.43;;
2966;SDS011;1493;51.496;7.210;2022-10-23T15:35:18;2.93;;;2.20;;
2966;SDS011;1493;51.496;7.210;2022-10-23T15:37:45;4.40;;;1.90;;
2966;SDS011;1493;51.496;7.210;2022-10-23T15:40:12;7.23;;;2.10;;
2966;SDS011;1493;51.496;7.210;2022-10-23T15:42:39;5.50;;;2.17;;
2966;SDS011;1493;51.496;7.210;2022-10-23T15:45:08;5.30;;;2.10;;
2966;SDS011;1493;51.496;7.210;2022-10-23T15:47:35;4.00;;;2.10;;